sensor_id;sensor_type;location;lat;lon;timestamp;pressure;altitude;pressure_sealevel;temperature;humidity
7441;BME280;29616;51.950;8.572;2022-10-30T00:01:32;100237.22;;;13.82;100.00
7441;BME280;29616;51.950;8.572;2022-10-30T00:04:00;100248.75;;;13.86;100.00
7441;BME280;29616;51.950;8.572;2022-10-30T00:06:29;100237.41;;;13.81;100.00
7441;BME280;29616;51.950;8.572;2022-10-30T00:08:58;100228.13;;;13.74;100.00
7441;BME280;29616;51.950;8.572;2022-10-30T00:11:28;100224.50;;;13.73;100.00
7441;BME280;29616;51.950;8.572;2022-10-30T00:13:58;100241.19;;;13.80;100.00
7441;BME280;29616;51.950;8.572;2022-10-30T00:16:28;100237.22;;;13.82;100.00
7441;BME280;29616;51.950;8.572;2022-10-30T00:18:56;100234.66;;;13.81;100.00
7441;BME280;29616;51.950;8.572;2022-10-30T00:21:25;100232.59;;;13.83;100.00
7441;BME280;29616;51.950;8.572;2022-10-30T00:23:54;100230.88;;;13.82;100.00
7441;BME280;29616;51.950;8.572;2022-10-30T00:26:25;100232.59;;;13.83;100.00
7441;BME280;29616;51.950;8.572;2022-10-30T00:28:55;100239.44;;;13.79;100.00
7441;BME280;29616;51.950;8.572;2022-10-30T00:31:26;100230.00;;;13.81;100.00
7441;BME280;29616;51.950;8.572;2022-10-30T00:33:56;100224.34;;;13.75;100.00
7441;BME280;29616;51.950;8.572;2022-10-30T00:36:27;100226.75;;;13.70;100.00
7441;BME280;29616;51.950;8.572;2022-10-30T00:38:55;100212.47;;;13.58;100.00
7441;BME280;29616;51.950;8.572;2022-10-30T00:41:24;100225.19;;;13.59;100.00
7441;BME280;29616;51.950;8.572;2022-10-30T00:43:54;100235.31;;;13.59;100.00
7441;BME280;29616;51.950;8.572;2022-10-30T00:46:29;100237.38;;;13.57;100.00
7441;BME280;29616;51.950;8.572;2022-10-30T00:49:02;100233.59;;;13.58;100.00
7441;BME280;29616;51.950;8.572;2022-10-30T00:51:32;100228.44;;;13.55;100.00
7441;BME280;29616;51.950;8.572;2022-10-30T00:54:03;100238.03;;;13.51;100.00
7441;BME280;29616;51.950;8.572;2022-10-30T00:56:35;100237.84;;;13.44;100.00
7441;BME280;29616;51.950;8.572;2022-10-30T00:59:06;100218.47;;;13.38;100.00
7441;BME280;29616;51.950;8.572;2022-10-30T01:01:40;100229.09;;;13.41;100.00
7441;BME280;29616;51.950;8.572;2022-10-30T01:04:10;100227.03;;;13.34;100.00
7441;BME280;29616;51.950;8.572;2022-10-30T01:06:43;100226.38;;;13.41;100.00
7441;BME280;29616;51.950;8.572;2022-10-30T01:09:15;100233.41;;;13.51;100.00
7441;BME280;29616;51.950;8.572;2022-10-30T01:11:45;100225.66;;;13.47;100.00
7441;BME280;29616;51.950;8.572;2022-10-30T01:14:16;100224.66;;;13.48;100.00
7441;BME280;29616;51.950;8.572;2022-10-30T01:17:20;100228.94;;;13.50;100.00
7441;BME280;29616;51.950;8.572;2022-10-30T01:20:04;100226.22;;;13.58;100.00
7441;BME280;29616;51.950;8.572;2022-10-30T01:22:51;100219.50;;;13.53;100.00
7441;BME280;29616;51.950;8.572;2022-10-30T01:25:41;100227.59;;;13.54;100.00
7441;BME280;29616;51.950;8.572;2022-10-30T01:28:27;100227.59;;;13.54;100.00
7441;BME280;29616;51.950;8.572;2022-10-30T01:31:15;100219.13;;;13.40;100.00
7441;BME280;29616;51.950;8.572;2022-10-30T01:34:01;100231.66;;;13.42;100.00
7441;BME280;29616;51.950;8.572;2022-10-30T01:36:37;100232.69;;;13.33;100.00
7441;BME280;29616;51.950;8.572;2022-10-30T01:39:12;100242.16;;;13.39;100.00
7441;BME280;29616;51.950;8.572;2022-10-30T01:41:43;100238.00;;;13.34;100.00
7441;BME280;29616;51.950;8.572;2022-10-30T01:44:14;100218.09;;;13.32;100.00
7441;BME280;29616;51.950;8.572;2022-10-30T01:47:11;100237.16;;;13.42;100.00
7441;BME280;29616;51.950;8.572;2022-10-30T01:50:08;100234.94;;;13.46;100.00
7441;BME280;29616;51.950;8.572;2022-10-30T01:52:45;100241.13;;;13.48;100.00
7441;BME280;29616;51.950;8.572;2022-10-30T01:55:28;100230.81;;;13.42;100.00
7441;BME280;29616;51.950;8.572;2022-10-30T01:58:07;100233.19;;;13.36;100.00
7441;BME280;29616;51.950;8.572;2022-10-30T02:00:43;100226.03;;;13.44;100.00
7441;BME280;29616;51.950;8.572;2022-10-30T02:03:15;100231.34;;;13.45;100.00
7441;BME280;29616;51.950;8.572;2022-10-30T02:05:48;100216.72;;;13.36;100.00
7441;BME280;29616;51.950;8.572;2022-10-30T02:08:19;100198.03;;;13.32;100.00
7441;BME280;29616;51.950;8.572;2022-10-30T02:10:51;100224.47;;;13.41;100.00
7441;BME280;29616;51.950;8.572;2022-10-30T02:13:34;100223.63;;;13.49;100.00
7441;BME280;29616;51.950;8.572;2022-10-30T02:16:04;100228.94;;;13.50;100.00
7441;BME280;29616;51.950;8.572;2022-10-30T02:18:33;100221.25;;;13.54;100.00
7441;BME280;29616;51.950;8.572;2022-10-30T02:21:04;100219.50;;;13.45;100.00
7441;BME280;29616;51.950;8.572;2022-10-30T02:23:36;100231.16;;;13.47;100.00
7441;BME280;29616;51.950;8.572;2022-10-30T02:26:06;100229.47;;;13.46;100.00
7441;BME280;29616;51.950;8.572;2022-10-30T02:28:34;100233.22;;;13.45;100.00
7441;BME280;29616;51.950;8.572;2022-10-30T02:31:02;100233.41;;;13.51;100.00
7441;BME280;29616;51.950;8.572;2022-10-30T02:33:32;100230.50;;;13.53;100.00
7441;BME280;29616;51.950;8.572;2022-10-30T02:36:05;100229.81;;;13.51;100.00
7441;BME280;29616;51.950;8.572;2022-10-30T02:38:34;100227.41;;;13.56;100.00
7441;BME280;29616;51.950;8.572;2022-10-30T02:41:03;100228.28;;;13.56;100.00
7441;BME280;29616;51.950;8.572;2022-10-30T02:43:33;100231.88;;;13.57;100.00
7441;BME280;29616;51.950;8.572;2022-10-30T02:46:04;100218.47;;;13.46;100.00
7441;BME280;29616;51.950;8.572;2022-10-30T02:48:33;100227.41;;;13.48;100.00
7441;BME280;29616;51.950;8.572;2022-10-30T02:51:03;100225.31;;;13.42;100.00
7441;BME280;29616;51.950;8.572;2022-10-30T02:53:34;100208.66;;;13.27;100.00
7441;BME280;29616;51.950;8.572;2022-10-30T02:56:05;100223.06;;;13.29;100.00
7441;BME280;29616;51.950;8.572;2022-10-30T02:58:35;100211.41;;;13.27;100.00
7441;BME280;29616;51.950;8.572;2022-10-30T03:01:06;100219.97;;;13.24;100.00
7441;BME280;29616;51.950;8.572;2022-10-30T03:03:37;100218.59;;;13.20;100.00
7441;BME280;29616;51.950;8.572;2022-10-30T03:06:10;100217.19;;;13.16;100.00
7441;BME280;29616;51.950;8.572;2022-10-30T03:08:40;100226.28;;;13.16;100.00
7441;BME280;29616;51.950;8.572;2022-10-30T03:11:13;100217.31;;;13.06;100.00
7441;BME280;29616;51.950;8.572;2022-10-30T03:13:43;100215.91;;;13.02;100.00
7441;BME280;29616;51.950;8.572;2022-10-30T03:16:14;100230.31;;;13.04;100.00
7441;BME280;29616;51.950;8.572;2022-10-30T03:18:43;100226.84;;;12.94;100.00
7441;BME280;29616;51.950;8.572;2022-10-30T03:21:16;100234.56;;;12.91;100.00
7441;BME280;29616;51.950;8.572;2022-10-30T03:23:46;100234.16;;;12.86;100.00
7441;BME280;29616;51.950;8.572;2022-10-30T03:26:18;100230.38;;;12.78;100.00
7441;BME280;29616;51.950;8.572;2022-10-30T03:28:56;100232.88;;;12.64;100.00
7441;BME280;29616;51.950;8.572;2022-10-30T03:31:25;100229.28;;;12.63;100.00
7441;BME280;29616;51.950;8.572;2022-10-30T03:34:07;100230.97;;;12.64;100.00
7441;BME280;29616;51.950;8.572;2022-10-30T03:36:36;100217.94;;;12.58;100.00
7441;BME280;29616;51.950;8.572;2022-10-30T03:39:06;100232.34;;;12.60;100.00
7441;BME280;29616;51.950;8.572;2022-10-30T03:41:37;100211.31;;;12.69;100.00
7441;BME280;29616;51.950;8.572;2022-10-30T03:44:07;100214.78;;;12.79;100.00
7441;BME280;29616;51.950;8.572;2022-10-30T03:46:37;100229.50;;;12.78;100.00
7441;BME280;29616;51.950;8.572;2022-10-30T03:49:18;100228.13;;;12.74;100.00
7441;BME280;29616;51.950;8.572;2022-10-30T03:51:49;100229.50;;;12.78;100.00
7441;BME280;29616;51.950;8.572;2022-10-30T03:54:17;100239.78;;;12.76;100.00
7441;BME280;29616;51.950;8.572;2022-10-30T03:56:45;100240.81;;;12.75;100.00
7441;BME280;29616;51.950;8.572;2022-10-30T03:59:16;100247.78;;;12.69;100.00
7441;BME280;29616;51.950;8.572;2022-10-30T04:02:01;100247.66;;;12.71;100.00
7441;BME280;29616;51.950;8.572;2022-10-30T04:04:31;100243.50;;;12.67;100.00
7441;BME280;29616;51.950;8.572;2022-10-30T04:07:01;100236.63;;;12.63;100.00
7441;BME280;29616;51.950;8.572;2022-10-30T04:09:32;100243.19;;;12.70;100.00
7441;BME280;29616;51.950;8.572;2022-10-30T04:12:00;100235.28;;;12.67;100.00
7441;BME280;29616;51.950;8.572;2022-10-30T04:14:28;100230.56;;;12.77;100.00
7441;BME280;29616;51.950;8.572;2022-10-30T04:16:56;100239.09;;;12.74;100.00
7441;BME280;29616;51.950;8.572;2022-10-30T04:19:26;100229.47;;;12.70;100.00
7441;BME280;29616;51.950;8.572;2022-10-30T04:21:57;100245.91;;;12.70;100.00
7441;BME280;29616;51.950;8.572;2022-10-30T04:24:28;100238.88;;;12.67;100.00
7441;BME280;29616;51.950;8.572;2022-10-30T04:26:57;100234.44;;;12.66;100.00
7441;BME280;29616;51.950;8.572;2022-10-30T04:29:26;100230.34;;;12.70;100.00
7441;BME280;29616;51.950;8.572;2022-10-30T04:31:54;100220.13;;;12.55;100.00
7441;BME280;29616;51.950;8.572;2022-10-30T04:34:24;100225.63;;;12.55;100.00
7441;BME280;29616;51.950;8.572;2022-10-30T04:36:53;100233.53;;;12.58;100.00
7441;BME280;29616;51.950;8.572;2022-10-30T04:39:24;100229.56;;;12.52;100.00
7441;BME280;29616;51.950;8.572;2022-10-30T04:42:00;100239.09;;;12.48;100.00
7441;BME280;29616;51.950;8.572;2022-10-30T04:44:33;100234.06;;;12.36;100.00
7441;BME280;29616;51.950;8.572;2022-10-30T04:47:01;100229.63;;;12.35;100.00
7441;BME280;29616;51.950;8.572;2022-10-30T04:49:30;100222.97;;;12.20;100.00
7441;BME280;29616;51.950;8.572;2022-10-30T04:51:59;100228.97;;;12.15;100.00
7441;BME280;29616;51.950;8.572;2022-10-30T04:54:27;100240.84;;;12.06;100.00
7441;BME280;29616;51.950;8.572;2022-10-30T04:56:55;100226.56;;;11.94;100.00
7441;BME280;29616;51.950;8.572;2022-10-30T04:59:26;100231.66;;;11.89;100.00
7441;BME280;29616;51.950;8.572;2022-10-30T05:01:54;100230.56;;;11.82;100.00
7441;BME280;29616;51.950;8.572;2022-10-30T05:04:24;100235.56;;;11.69;100.00
7441;BME280;29616;51.950;8.572;2022-10-30T05:06:54;100235.63;;;11.60;100.00
7441;BME280;29616;51.950;8.572;2022-10-30T05:09:23;100225.13;;;11.55;100.00
7441;BME280;29616;51.950;8.572;2022-10-30T05:11:52;100232.25;;;11.48;100.00
7441;BME280;29616;51.950;8.572;2022-10-30T05:14:34;100232.88;;;11.42;100.00
7441;BME280;29616;51.950;8.572;2022-10-30T05:17:03;100234.13;;;11.30;100.00
7441;BME280;29616;51.950;8.572;2022-10-30T05:19:32;100239.09;;;11.17;100.00
7441;BME280;29616;51.950;8.572;2022-10-30T05:22:02;100230.50;;;11.12;100.00
7441;BME280;29616;51.950;8.572;2022-10-30T05:24:33;100226.22;;;11.00;100.00
7441;BME280;29616;51.950;8.572;2022-10-30T05:27:03;100230.84;;;10.99;100.00
7441;BME280;29616;51.950;8.572;2022-10-30T05:29:35;100222.44;;;11.10;100.00
7441;BME280;29616;51.950;8.572;2022-10-30T05:32:05;100227.66;;;11.04;100.00
7441;BME280;29616;51.950;8.572;2022-10-30T05:34:42;100226.50;;;11.06;100.00
7441;BME280;29616;51.950;8.572;2022-10-30T05:37:13;100231.00;;;10.98;100.00
7441;BME280;29616;51.950;8.572;2022-10-30T05:39:44;100238.81;;;10.92;100.00
7441;BME280;29616;51.950;8.572;2022-10-30T05:42:22;100244.16;;;10.84;100.00
7441;BME280;29616;51.950;8.572;2022-10-30T05:44:55;100247.38;;;10.80;100.00
7441;BME280;29616;51.950;8.572;2022-10-30T05:47:33;100236.22;;;10.64;100.00
7441;BME280;29616;51.950;8.572;2022-10-30T05:50:06;100232.22;;;10.49;100.00
7441;BME280;29616;51.950;8.572;2022-10-30T05:52:35;100248.03;;;10.55;100.00
7441;BME280;29616;51.950;8.572;2022-10-30T05:55:08;100251.91;;;10.52;100.00
7441;BME280;29616;51.950;8.572;2022-10-30T05:57:55;100256.09;;;10.47;100.00
7441;BME280;29616;51.950;8.572;2022-10-30T06:00:28;100257.84;;;10.48;100.00
7441;BME280;29616;51.950;8.572;2022-10-30T06:02:58;100253.81;;;10.42;100.00
7441;BME280;29616;51.950;8.572;2022-10-30T06:05:33;100259.00;;;10.35;100.00
7441;BME280;29616;51.950;8.572;2022-10-30T06:08:02;100256.72;;;10.31;100.00
7441;BME280;29616;51.950;8.572;2022-10-30T06:10:32;100259.75;;;10.28;100.00
7441;BME280;29616;51.950;8.572;2022-10-30T06:13:10;100266.53;;;10.24;100.00
7441;BME280;29616;51.950;8.572;2022-10-30T06:15:57;100265.38;;;10.26;100.00
7441;BME280;29616;51.950;8.572;2022-10-30T06:18:37;100267.66;;;10.31;100.00
7441;BME280;29616;51.950;8.572;2022-10-30T06:21:10;100261.91;;;10.34;100.00
7441;BME280;29616;51.950;8.572;2022-10-30T06:23:50;100260.44;;;10.30;100.00
7441;BME280;29616;51.950;8.572;2022-10-30T06:26:34;100253.28;;;10.29;100.00
7441;BME280;29616;51.950;8.572;2022-10-30T06:29:07;100265.91;;;10.30;100.00
7441;BME280;29616;51.950;8.572;2022-10-30T06:31:38;100255.56;;;10.33;100.00
7441;BME280;29616;51.950;8.572;2022-10-30T06:34:08;100259.00;;;10.35;100.00
7441;BME280;29616;51.950;8.572;2022-10-30T06:36:39;100256.97;;;10.47;100.00
7441;BME280;29616;51.950;8.572;2022-10-30T06:39:08;100264.59;;;10.53;100.00
7441;BME280;29616;51.950;8.572;2022-10-30T06:41:46;100260.53;;;10.57;100.00
7441;BME280;29616;51.950;8.572;2022-10-30T06:44:22;100263.97;;;10.59;100.00
7441;BME280;29616;51.950;8.572;2022-10-30T06:46:53;100255.19;;;10.65;100.00
7441;BME280;29616;51.950;8.572;2022-10-30T06:49:23;100254.59;;;10.71;100.00
7441;BME280;29616;51.950;8.572;2022-10-30T06:51:53;100258.13;;;10.81;100.00
7441;BME280;29616;51.950;8.572;2022-10-30T06:54:23;100266.31;;;10.91;100.00
7441;BME280;29616;51.950;8.572;2022-10-30T06:57:00;100253.88;;;10.96;100.00
7441;BME280;29616;51.950;8.572;2022-10-30T07:00:04;100247.50;;;11.06;100.00
7441;BME280;29616;51.950;8.572;2022-10-30T07:02:58;100252.16;;;11.23;100.00
7441;BME280;29616;51.950;8.572;2022-10-30T07:05:29;100249.94;;;11.36;100.00
7441;BME280;29616;51.950;8.572;2022-10-30T07:08:00;100249.47;;;11.58;100.00
7441;BME280;29616;51.950;8.572;2022-10-30T07:10:29;100239.81;;;11.81;100.00
7441;BME280;29616;51.950;8.572;2022-10-30T07:13:29;100247.13;;;11.98;100.00
7441;BME280;29616;51.950;8.572;2022-10-30T07:16:20;100245.53;;;12.13;100.00
7441;BME280;29616;51.950;8.572;2022-10-30T07:18:52;100231.81;;;12.31;100.00
7441;BME280;29616;51.950;8.572;2022-10-30T07:21:26;100256.91;;;13.46;100.00
7441;BME280;29616;51.950;8.572;2022-10-30T07:23:55;100254.59;;;14.55;100.00
7441;BME280;29616;51.950;8.572;2022-10-30T07:26:31;100252.69;;;15.19;100.00
7441;BME280;29616;51.950;8.572;2022-10-30T07:29:23;100242.09;;;15.69;100.00
7441;BME280;29616;51.950;8.572;2022-10-30T07:32:28;100242.75;;;16.17;100.00
7441;BME280;29616;51.950;8.572;2022-10-30T07:35:13;100244.13;;;17.17;100.00
7441;BME280;29616;51.950;8.572;2022-10-30T07:37:53;100242.88;;;17.84;100.00
7441;BME280;29616;51.950;8.572;2022-10-30T07:40:34;100251.19;;;18.05;100.00
7441;BME280;29616;51.950;8.572;2022-10-30T07:43:14;100261.09;;;18.63;100.00
7441;BME280;29616;51.950;8.572;2022-10-30T07:46:06;100266.09;;;19.09;100.00
7441;BME280;29616;51.950;8.572;2022-10-30T07:48:57;100257.53;;;19.79;100.00
7441;BME280;29616;51.950;8.572;2022-10-30T07:51:41;100258.31;;;20.40;100.00
7441;BME280;29616;51.950;8.572;2022-10-30T07:54:12;100261.09;;;20.53;100.00
7441;BME280;29616;51.950;8.572;2022-10-30T07:56:41;100269.38;;;20.99;100.00
7441;BME280;29616;51.950;8.572;2022-10-30T07:59:37;100271.31;;;21.11;100.00
7441;BME280;29616;51.950;8.572;2022-10-30T08:02:38;100274.31;;;20.71;100.00
7441;BME280;29616;51.950;8.572;2022-10-30T08:05:31;100268.59;;;21.56;100.00
7441;BME280;29616;51.950;8.572;2022-10-30T08:08:09;100274.88;;;21.32;100.00
7441;BME280;29616;51.950;8.572;2022-10-30T08:10:39;100274.69;;;21.91;100.00
7441;BME280;29616;51.950;8.572;2022-10-30T08:13:10;100271.38;;;21.62;100.00
7441;BME280;29616;51.950;8.572;2022-10-30T08:15:41;100254.59;;;22.20;100.00
7441;BME280;29616;51.950;8.572;2022-10-30T08:18:12;100267.31;;;23.15;100.00
7441;BME280;29616;51.950;8.572;2022-10-30T08:20:42;100263.97;;;23.97;100.00
7441;BME280;29616;51.950;8.572;2022-10-30T08:23:21;100275.81;;;23.02;100.00
7441;BME280;29616;51.950;8.572;2022-10-30T08:25:49;100274.34;;;22.74;100.00
7441;BME280;29616;51.950;8.572;2022-10-30T08:28:19;100278.03;;;23.36;100.00
7441;BME280;29616;51.950;8.572;2022-10-30T08:30:47;100273.22;;;23.97;100.00
7441;BME280;29616;51.950;8.572;2022-10-30T08:33:26;100270.53;;;24.21;100.00
7441;BME280;29616;51.950;8.572;2022-10-30T08:36:22;100287.25;;;24.80;100.00
7441;BME280;29616;51.950;8.572;2022-10-30T08:38:52;100297.47;;;25.56;100.00
7441;BME280;29616;51.950;8.572;2022-10-30T08:41:39;100297.56;;;25.72;100.00
7441;BME280;29616;51.950;8.572;2022-10-30T08:44:10;100289.28;;;25.66;100.00
7441;BME280;29616;51.950;8.572;2022-10-30T08:47:13;100296.38;;;25.33;100.00
7441;BME280;29616;51.950;8.572;2022-10-30T08:49:44;100292.38;;;25.53;100.00
7441;BME280;29616;51.950;8.572;2022-10-30T08:52:15;100295.84;;;25.83;100.00
7441;BME280;29616;51.950;8.572;2022-10-30T08:54:51;100292.25;;;25.59;100.00
7441;BME280;29616;51.950;8.572;2022-10-30T08:57:23;100278.66;;;25.91;100.00
7441;BME280;29616;51.950;8.572;2022-10-30T08:59:56;100291.03;;;25.44;100.00
7441;BME280;29616;51.950;8.572;2022-10-30T09:02:44;100293.81;;;25.20;100.00
7441;BME280;29616;51.950;8.572;2022-10-30T09:05:36;100291.28;;;25.30;100.00
7441;BME280;29616;51.950;8.572;2022-10-30T09:08:14;100290.16;;;25.31;100.00
7441;BME280;29616;51.950;8.572;2022-10-30T09:11:04;100285.97;;;26.48;100.00
7441;BME280;29616;51.950;8.572;2022-10-30T09:13:36;100269.91;;;26.89;100.00
7441;BME280;29616;51.950;8.572;2022-10-30T09:16:06;100285.97;;;26.48;100.00
7441;BME280;29616;51.950;8.572;2022-10-30T09:18:37;100286.47;;;27.07;100.00
7441;BME280;29616;51.950;8.572;2022-10-30T09:21:05;100280.06;;;27.45;97.70
7441;BME280;29616;51.950;8.572;2022-10-30T09:23:43;100274.78;;;27.48;99.47
7441;BME280;29616;51.950;8.572;2022-10-30T09:26:51;100272.09;;;26.25;100.00
7441;BME280;29616;51.950;8.572;2022-10-30T09:29:33;100270.16;;;25.86;100.00
7441;BME280;29616;51.950;8.572;2022-10-30T09:32:09;100273.50;;;25.37;100.00
7441;BME280;29616;51.950;8.572;2022-10-30T09:34:49;100267.78;;;25.31;100.00
7441;BME280;29616;51.950;8.572;2022-10-30T09:37:33;100252.34;;;25.29;100.00
7441;BME280;29616;51.950;8.572;2022-10-30T09:40:09;100265.94;;;25.60;100.00
7441;BME280;29616;51.950;8.572;2022-10-30T09:42:43;100266.41;;;26.20;100.00
7441;BME280;29616;51.950;8.572;2022-10-30T09:45:49;100266.81;;;27.07;87.29
7441;BME280;29616;51.950;8.572;2022-10-30T09:49:13;100261.03;;;26.64;97.88
7441;BME280;29616;51.950;8.572;2022-10-30T09:52:21;100256.44;;;26.58;99.20
7441;BME280;29616;51.950;8.572;2022-10-30T09:55:15;100259.03;;;27.09;99.58
7441;BME280;29616;51.950;8.572;2022-10-30T09:57:56;100265.31;;;26.83;95.91
7441;BME280;29616;51.950;8.572;2022-10-30T10:00:34;100249.91;;;26.85;99.28
7441;BME280;29616;51.950;8.572;2022-10-30T10:03:30;100255.59;;;27.07;98.58
7441;BME280;29616;51.950;8.572;2022-10-30T10:06:21;100252.06;;;26.78;96.38
7441;BME280;29616;51.950;8.572;2022-10-30T10:09:19;100252.78;;;27.07;96.98
7441;BME280;29616;51.950;8.572;2022-10-30T10:12:06;100253.63;;;26.58;97.55
7441;BME280;29616;51.950;8.572;2022-10-30T10:14:42;100261.19;;;26.57;98.15
7441;BME280;29616;51.950;8.572;2022-10-30T10:17:24;100257.81;;;26.55;95.96
7441;BME280;29616;51.950;8.572;2022-10-30T10:19:57;100261.06;;;26.07;96.32
7441;BME280;29616;51.950;8.572;2022-10-30T10:22:33;100250.63;;;25.63;99.92
7441;BME280;29616;51.950;8.572;2022-10-30T10:25:12;100255.50;;;25.96;100.00
7441;BME280;29616;51.950;8.572;2022-10-30T10:27:52;100256.94;;;25.70;100.00
7441;BME280;29616;51.950;8.572;2022-10-30T10:30:33;100245.41;;;25.95;98.35
7441;BME280;29616;51.950;8.572;2022-10-30T10:33:22;100257.66;;;26.05;99.63
7441;BME280;29616;51.950;8.572;2022-10-30T10:36:19;100249.13;;;25.72;100.00
7441;BME280;29616;51.950;8.572;2022-10-30T10:39:14;100246.22;;;26.35;98.48
7441;BME280;29616;51.950;8.572;2022-10-30T10:41:57;100249.41;;;26.27;99.08
7441;BME280;29616;51.950;8.572;2022-10-30T10:44:50;100256.38;;;26.24;93.62
7441;BME280;29616;51.950;8.572;2022-10-30T10:47:47;100239.75;;;25.78;98.73
7441;BME280;29616;51.950;8.572;2022-10-30T10:50:28;100249.66;;;25.97;100.00
7441;BME280;29616;51.950;8.572;2022-10-30T10:53:05;100239.56;;;26.24;95.36
7441;BME280;29616;51.950;8.572;2022-10-30T10:55:38;100234.38;;;26.16;97.53
7441;BME280;29616;51.950;8.572;2022-10-30T10:58:17;100241.00;;;25.99;99.37
7441;BME280;29616;51.950;8.572;2022-10-30T11:00:51;100229.34;;;25.62;100.00
7441;BME280;29616;51.950;8.572;2022-10-30T11:03:27;100216.97;;;26.14;100.00
7441;BME280;29616;51.950;8.572;2022-10-30T11:06:03;100225.88;;;27.06;100.00
7441;BME280;29616;51.950;8.572;2022-10-30T11:08:40;100234.19;;;26.34;100.00
7441;BME280;29616;51.950;8.572;2022-10-30T11:11:08;100227.28;;;25.97;100.00
7441;BME280;29616;51.950;8.572;2022-10-30T11:13:39;100226.34;;;25.80;100.00
7441;BME280;29616;51.950;8.572;2022-10-30T11:16:17;100220.13;;;25.26;100.00
7441;BME280;29616;51.950;8.572;2022-10-30T11:18:56;100214.22;;;24.88;100.00
7441;BME280;29616;51.950;8.572;2022-10-30T11:21:30;100211.78;;;25.03;100.00
7441;BME280;29616;51.950;8.572;2022-10-30T11:24:01;100206.78;;;25.17;100.00
7441;BME280;29616;51.950;8.572;2022-10-30T11:26:33;100202.28;;;25.04;100.00
7441;BME280;29616;51.950;8.572;2022-10-30T11:29:08;100172.63;;;24.92;100.00
7441;BME280;29616;51.950;8.572;2022-10-30T11:31:40;100191.06;;;25.79;100.00
7441;BME280;29616;51.950;8.572;2022-10-30T11:34:34;100178.91;;;26.02;100.00
7441;BME280;29616;51.950;8.572;2022-10-30T11:37:04;100179.75;;;26.02;100.00
7441;BME280;29616;51.950;8.572;2022-10-30T11:39:34;100171.22;;;25.80;100.00
7441;BME280;29616;51.950;8.572;2022-10-30T11:42:11;100178.19;;;25.78;100.00
7441;BME280;29616;51.950;8.572;2022-10-30T11:44:47;100164.78;;;25.40;100.00
7441;BME280;29616;51.950;8.572;2022-10-30T11:47:25;100183.72;;;25.61;100.00
7441;BME280;29616;51.950;8.572;2022-10-30T11:49:59;100177.03;;;25.62;100.00
7441;BME280;29616;51.950;8.572;2022-10-30T11:52:28;100184.38;;;25.52;100.00
7441;BME280;29616;51.950;8.572;2022-10-30T11:55:13;100174.13;;;25.85;100.00
7441;BME280;29616;51.950;8.572;2022-10-30T11:57:47;100183.22;;;26.37;97.55
7441;BME280;29616;51.950;8.572;2022-10-30T12:00:19;100172.94;;;26.43;96.72
7441;BME280;29616;51.950;8.572;2022-10-30T12:02:50;100179.84;;;26.69;95.59
7441;BME280;29616;51.950;8.572;2022-10-30T12:05:36;100184.59;;;26.52;93.41
7441;BME280;29616;51.950;8.572;2022-10-30T12:08:18;100182.13;;;26.55;95.70
7441;BME280;29616;51.950;8.572;2022-10-30T12:10:58;100173.72;;;26.72;92.47
7441;BME280;29616;51.950;8.572;2022-10-30T12:13:38;100181.72;;;26.80;92.85
7441;BME280;29616;51.950;8.572;2022-10-30T12:16:13;100176.69;;;27.58;90.61
7441;BME280;29616;51.950;8.572;2022-10-30T12:18:53;100171.91;;;27.81;86.47
7441;BME280;29616;51.950;8.572;2022-10-30T12:21:29;100170.28;;;27.90;86.37
7441;BME280;29616;51.950;8.572;2022-10-30T12:24:01;100166.44;;;27.96;83.42
7441;BME280;29616;51.950;8.572;2022-10-30T12:26:35;100135.81;;;27.67;84.42
7441;BME280;29616;51.950;8.572;2022-10-30T12:29:13;100162.00;;;28.26;82.38
7441;BME280;29616;51.950;8.572;2022-10-30T12:31:51;100162.09;;;28.05;80.52
7441;BME280;29616;51.950;8.572;2022-10-30T12:34:35;100157.50;;;27.99;78.16
7441;BME280;29616;51.950;8.572;2022-10-30T12:37:11;100152.00;;;28.09;77.02
7441;BME280;29616;51.950;8.572;2022-10-30T12:39:56;100145.22;;;28.05;78.72
7441;BME280;29616;51.950;8.572;2022-10-30T12:42:30;100155.66;;;28.41;75.03
7441;BME280;29616;51.950;8.572;2022-10-30T12:45:12;100156.56;;;28.15;76.28
7441;BME280;29616;51.950;8.572;2022-10-30T12:47:48;100150.41;;;28.18;77.94
7441;BME280;29616;51.950;8.572;2022-10-30T12:50:24;100154.22;;;28.07;76.07
7441;BME280;29616;51.950;8.572;2022-10-30T12:52:59;100150.13;;;27.93;75.18
7441;BME280;29616;51.950;8.572;2022-10-30T12:55:34;100170.19;;;27.80;77.48
7441;BME280;29616;51.950;8.572;2022-10-30T12:58:17;100158.44;;;27.39;83.37
7441;BME280;29616;51.950;8.572;2022-10-30T13:00:55;100159.66;;;27.43;82.81
7441;BME280;29616;51.950;8.572;2022-10-30T13:03:30;100147.47;;;27.16;84.25
7441;BME280;29616;51.950;8.572;2022-10-30T13:06:09;100157.66;;;27.22;87.15
7441;BME280;29616;51.950;8.572;2022-10-30T13:08:56;100145.75;;;26.93;94.59
7441;BME280;29616;51.950;8.572;2022-10-30T13:11:38;100153.16;;;26.83;93.79
7441;BME280;29616;51.950;8.572;2022-10-30T13:14:14;100151.13;;;26.95;96.68
7441;BME280;29616;51.950;8.572;2022-10-30T13:16:44;100135.75;;;27.19;96.01
7441;BME280;29616;51.950;8.572;2022-10-30T13:19:15;100130.63;;;27.54;90.96
7441;BME280;29616;51.950;8.572;2022-10-30T13:21:51;100142.19;;;27.63;90.74
7441;BME280;29616;51.950;8.572;2022-10-30T13:24:41;100139.97;;;27.22;90.97
7441;BME280;29616;51.950;8.572;2022-10-30T13:27:18;100142.81;;;27.43;93.70
7441;BME280;29616;51.950;8.572;2022-10-30T13:29:56;100135.09;;;27.55;90.62
7441;BME280;29616;51.950;8.572;2022-10-30T13:32:42;100132.28;;;27.55;90.86
7441;BME280;29616;51.950;8.572;2022-10-30T13:35:26;100129.16;;;27.52;90.55
7441;BME280;29616;51.950;8.572;2022-10-30T13:38:13;100140.09;;;27.75;87.53
7441;BME280;29616;51.950;8.572;2022-10-30T13:40:55;100137.06;;;27.82;84.71